PDT,Max TemperatureF,Mean TemperatureF,Min TemperatureF,Max Dew PointF,MeanDew PointF,Min DewpointF,Max Humidity, Mean Humidity, Min Humidity, Max Sea Level PressureIn, Mean Sea Level PressureIn, Min Sea Level PressureIn, Max VisibilityMiles, Mean VisibilityMiles, Min VisibilityMiles, Max Wind SpeedMPH, Mean Wind SpeedMPH, Max Gust SpeedMPH,PrecipitationIn, CloudCover, Events, WindDirDegrees
2012-9-1,106,91,76,57,41,30,48,28,7,29.85,29.80,29.75,10,10,10,23,5,31,0.00,0,,332
2012-9-2,107,91,75,49,35,24,38,22,6,29.84,29.78,29.71,10,10,10,10,2,14,0.00,1,,298
2012-9-3,104,91,78,67,53,38,47,32,16,29.91,29.84,29.78,10,10,10,10,3,15,0.00,0,,121
2012-9-4,102,94,85,75,57,42,60,40,19,29.95,29.89,29.81,10,10,10,15,6,20,0.00,1,,50
2012-9-5,104,94,83,56,50,41,32,25,18,29.91,29.84,29.75,10,10,10,10,3,15,T,3,,337
2012-9-6,105,93,80,59,55,52,45,32,19,29.88,29.81,29.74,10,10,10,18,5,24,0.00,1,,317
2012-9-7,105,93,81,62,59,55,51,36,20,29.92,29.85,29.79,10,10,10,14,5,23,0.00,1,,333
2012-9-8,109,96,82,66,61,58,48,35,21,29.86,29.80,29.73,10,10,10,16,7,20,0.00,1,,75
2012-9-9,102,94,85,75,68,62,57,44,31,29.94,29.83,29.72,10,8,0,13,4,16,0.00,4,Rain,92
2012-9-10,94,87,79,71,69,66,74,58,41,29.92,29.86,29.79,10,10,10,18,6,24,T,4,Rain,110
2012-9-11,94,85,76,72,70,67,87,66,44,29.90,29.86,29.79,10,10,10,13,7,21,0.00,6,,100
2012-9-12,101,89,77,68,65,59,69,48,26,29.97,29.90,29.83,10,10,10,14,5,16,0.00,1,,346
2012-9-13,107,94,80,62,46,33,51,31,10,29.97,29.92,29.86,10,10,10,14,6,18,0.00,0,,313
2012-9-14,105,92,79,45,40,34,23,17,10,30.02,29.95,29.90,10,10,10,13,6,16,0.00,0,,58
2012-9-15,103,90,77,47,41,36,30,21,11,30.03,29.97,29.89,10,10,10,13,5,16,0.00,0,,27
2012-9-16,101,88,75,54,43,39,31,22,13,29.99,29.92,29.85,10,10,10,13,6,16,0.00,0,,11
2012-9-17,104,89,73,54,43,34,46,28,10,29.92,29.86,29.79,10,10,10,18,3,25,0.00,0,,307
2012-9-18,106,90,74,51,44,32,41,25,8,29.92,29.87,29.81,10,10,10,13,4,17,0.00,0,,78
2012-9-19,106,91,76,51,44,36,36,23,10,29.91,29.86,29.80,10,10,10,14,6,16,0.00,0,,320
2012-9-20,109,94,79,49,41,35,27,18,9,29.87,29.82,29.75,10,9,6,12,5,15,0.00,1,,345
2012-9-21,109,94,79,54,44,35,39,24,8,29.85,29.79,29.71,10,8,6,12,4,15,0.00,0,,333
2012-9-22,105,92,79,56,48,38,42,27,11,29.85,29.80,29.77,10,8,6,8,2,10,0.00,3,,242
2012-9-23,107,93,79,55,45,34,42,25,8,29.89,29.83,29.80,10,8,6,20,3,24,0.00,1,,250
2012-9-24,105,91,76,48,44,42,35,24,13,29.88,29.80,29.73,10,8,6,24,5,31,0.00,0,,321
2012-9-25,100,85,70,50,44,35,44,28,11,29.79,29.74,29.68,10,8,6,18,4,22,0.00,0,,306
2012-9-26,102,86,69,56,46,35,57,34,11,29.81,29.75,29.70,10,10,10,13,4,17,0.00,0,,155
2012-9-27,100,87,73,61,50,38,45,30,14,29.89,29.83,29.77,10,10,10,17,7,21,0.00,1,,13
2012-9-28,99,86,73,53,48,43,43,30,16,29.88,29.82,29.75,10,10,10,12,4,15,0.00,1,,111
2012-9-29,103,89,75,54,45,32,42,26,9,29.91,29.86,29.81,10,10,10,13,4,18,0.00,1,,3
2012-9-30,107,92,76,45,38,30,30,19,7,29.93,29.88,29.81,10,10,10,13,5,17,0.00,0,,309